Time;durP1;ratioP1;P1;durP2;ratioP2;P2;SDS_P1;SDS_P2;PMS_P1;PMS_P2;Temp;Humidity;BMP_temperature;BMP_pressure;BME280_temperature;BME280_humidity;BME280_pressure;Samples;Min_cycle;Max_cycle;Signal;HPM_P1;HPM_P2
2022/04/08 00:01:44;;;;;;;3.03;1.20;;;8.80;99.90;;;;;;4424526;32;20150;-68
2022/04/08 00:04:11;;;;;;;1.70;1.20;;;8.80;99.90;;;;;;4423389;32;20182;-68
2022/04/08 00:06:38;;;;;;;1.50;1.10;;;8.80;99.90;;;;;;4423491;32;20178;-68
2022/04/08 00:09:05;;;;;;;2.33;0.90;;;8.80;99.90;;;;;;4422881;32;20241;-68
2022/04/08 00:11:32;;;;;;;3.43;1.20;;;8.80;99.90;;;;;;4423168;32;20288;-68
2022/04/08 00:14:00;;;;;;;2.03;1.10;;;8.80;99.90;;;;;;4424132;32;20186;-68
2022/04/08 00:16:27;;;;;;;1.97;1.10;;;8.80;99.90;;;;;;4422827;32;20204;-68
2022/04/08 00:18:55;;;;;;;1.53;1.03;;;8.70;99.90;;;;;;4422846;32;20163;-68
2022/04/08 00:21:25;;;;;;;2.97;1.20;;;8.80;99.90;;;;;;4423575;32;20197;-68
2022/04/08 00:23:52;;;;;;;2.87;1.30;;;8.70;99.90;;;;;;4424027;32;20244;-68
2022/04/08 00:26:19;;;;;;;2.93;1.20;;;8.70;99.90;;;;;;4423965;32;20163;-69
2022/04/08 00:28:46;;;;;;;2.03;1.10;;;8.70;99.90;;;;;;4423769;32;20170;-68
2022/04/08 00:31:13;;;;;;;1.70;1.20;;;8.70;99.90;;;;;;4422819;32;20178;-69
2022/04/08 00:33:40;;;;;;;2.47;1.40;;;8.70;99.90;;;;;;4422450;32;20178;-69
2022/04/08 00:36:07;;;;;;;3.37;1.30;;;8.70;99.90;;;;;;4424387;32;20174;-69
2022/04/08 00:38:34;;;;;;;2.13;1.40;;;8.70;99.90;;;;;;4424395;32;20165;-68
2022/04/08 00:41:01;;;;;;;1.83;1.10;;;8.70;99.90;;;;;;4422949;32;20231;-68
2022/04/08 00:43:35;;;;;;;1.77;1.10;;;8.70;99.90;;;;;;4424219;32;20457;-68
2022/04/08 00:46:04;;;;;;;2.47;1.20;;;8.60;99.90;;;;;;4422623;32;20220;-69
2022/04/08 00:48:32;;;;;;;2.20;1.40;;;8.70;99.90;;;;;;4422613;32;20189;-68
2022/04/08 00:51:00;;;;;;;1.60;1.20;;;8.70;99.90;;;;;;4424429;32;20181;-69
2022/04/08 00:53:27;;;;;;;2.10;1.20;;;8.70;99.90;;;;;;4423785;32;20527;-68
2022/04/08 00:55:54;;;;;;;1.90;1.20;;;8.70;99.90;;;;;;4425414;32;20139;-68
2022/04/08 00:58:22;;;;;;;2.23;1.23;;;8.60;99.90;;;;;;4425585;32;20350;-69
2022/04/08 01:00:49;;;;;;;2.60;1.07;;;8.60;99.90;;;;;;4423712;32;20190;-69
2022/04/08 01:03:16;;;;;;;2.90;1.33;;;8.60;99.90;;;;;;4424048;32;20174;-69
2022/04/08 01:05:43;;;;;;;4.63;1.60;;;8.50;99.90;;;;;;4423706;32;20545;-69
2022/04/08 01:08:11;;;;;;;2.40;1.40;;;8.50;99.90;;;;;;4422246;32;20162;-69
2022/04/08 01:10:40;;;;;;;3.03;1.30;;;8.40;99.90;;;;;;4423992;32;20441;-69
2022/04/08 01:13:07;;;;;;;2.87;1.37;;;8.40;99.90;;;;;;4422250;32;20193;-69
2022/04/08 01:15:34;;;;;;;3.87;1.27;;;8.40;99.90;;;;;;4424325;32;20171;-69
2022/04/08 01:18:05;;;;;;;4.40;1.60;;;8.40;99.90;;;;;;4423009;32;20170;-69
2022/04/08 01:20:33;;;;;;;3.13;1.30;;;8.40;99.90;;;;;;4422594;32;20217;-68
2022/04/08 01:23:00;;;;;;;2.37;1.40;;;8.40;99.90;;;;;;4423774;32;20150;-69
2022/04/08 01:25:28;;;;;;;2.33;1.53;;;8.40;99.90;;;;;;4422862;32;20224;-69
2022/04/08 01:27:55;;;;;;;2.50;1.50;;;8.40;99.90;;;;;;4423327;32;20437;-70
2022/04/08 01:30:22;;;;;;;1.73;1.30;;;8.40;99.90;;;;;;4423586;32;20237;-68
2022/04/08 01:32:49;;;;;;;3.30;1.40;;;8.40;99.90;;;;;;4422095;32;20183;-69
2022/04/08 01:35:16;;;;;;;2.73;1.60;;;8.40;99.90;;;;;;4422133;32;20220;-69
2022/04/08 01:37:43;;;;;;;1.70;1.33;;;8.40;99.90;;;;;;4424490;32;20420;-69
2022/04/08 01:40:10;;;;;;;2.33;1.40;;;8.40;99.90;;;;;;4423373;32;20177;-69
2022/04/08 01:42:37;;;;;;;3.87;1.70;;;8.40;99.90;;;;;;4424919;32;20142;-70
2022/04/08 01:45:05;;;;;;;1.93;1.37;;;8.40;99.90;;;;;;4422211;32;20524;-69
2022/04/08 01:47:32;;;;;;;2.97;1.40;;;8.30;99.90;;;;;;4422718;32;20226;-69
2022/04/08 01:49:59;;;;;;;2.10;1.37;;;8.30;99.90;;;;;;4424768;32;20489;-69
2022/04/08 01:52:25;;;;;;;2.30;1.47;;;8.30;99.90;;;;;;4424145;32;20460;-69
2022/04/08 01:54:52;;;;;;;3.03;1.50;;;8.30;99.90;;;;;;4423145;32;20206;-69
2022/04/08 01:57:23;;;;;;;3.20;1.47;;;8.30;99.90;;;;;;4421954;32;20202;-69
2022/04/08 01:59:54;;;;;;;2.50;1.50;;;8.30;99.90;;;;;;4422814;32;20174;-69
2022/04/08 02:02:21;;;;;;;1.90;1.23;;;8.20;99.90;;;;;;4423542;32;20182;-69
2022/04/08 02:04:48;;;;;;;2.47;1.40;;;8.30;99.90;;;;;;4426301;32;20183;-69
2022/04/08 02:07:15;;;;;;;2.70;1.23;;;8.30;99.90;;;;;;4425678;32;20174;-69
2022/04/08 02:09:42;;;;;;;3.30;1.70;;;8.30;99.90;;;;;;4426703;32;20516;-68
2022/04/08 02:12:09;;;;;;;3.63;1.27;;;8.40;99.90;;;;;;4425288;32;20205;-69
2022/04/08 02:14:37;;;;;;;3.67;1.60;;;8.50;99.90;;;;;;4426060;32;20520;-69
2022/04/08 02:17:04;;;;;;;2.90;1.20;;;8.50;99.90;;;;;;4424930;32;20173;-69
2022/04/08 02:19:32;;;;;;;2.70;1.23;;;8.50;99.90;;;;;;4424846;32;20224;-68
2022/04/08 02:21:59;;;;;;;2.47;1.30;;;8.60;99.90;;;;;;4424697;32;20196;-69
2022/04/08 02:24:27;;;;;;;2.37;1.20;;;8.60;99.90;;;;;;4425794;32;20604;-69
2022/04/08 02:26:54;;;;;;;3.50;1.60;;;8.60;99.90;;;;;;4426218;32;20161;-69
2022/04/08 02:29:21;;;;;;;3.40;1.20;;;8.60;99.90;;;;;;4425007;32;20166;-69
2022/04/08 02:31:49;;;;;;;4.10;1.40;;;8.60;99.90;;;;;;4425294;32;20542;-69
2022/04/08 02:34:17;;;;;;;5.40;1.50;;;8.60;99.90;;;;;;4426051;32;20401;-69
2022/04/08 02:36:44;;;;;;;1.53;1.17;;;8.60;99.90;;;;;;4426330;32;20151;-69
2022/04/08 02:39:11;;;;;;;3.47;1.10;;;8.60;99.90;;;;;;4424365;32;20179;-69
2022/04/08 02:41:38;;;;;;;4.67;1.40;;;8.60;99.90;;;;;;4424990;32;20234;-69
2022/04/08 02:44:05;;;;;;;3.00;1.30;;;8.60;99.90;;;;;;4424045;32;20552;-69
2022/04/08 02:46:32;;;;;;;3.80;1.40;;;8.60;99.90;;;;;;4425430;32;20166;-69
2022/04/08 02:48:59;;;;;;;2.30;1.30;;;8.60;99.90;;;;;;4424293;32;20516;-69
2022/04/08 02:51:28;;;;;;;2.20;1.10;;;8.50;99.90;;;;;;4424395;32;20540;-69
2022/04/08 02:53:55;;;;;;;3.07;1.10;;;8.60;99.90;;;;;;4426129;32;20438;-69
2022/04/08 02:56:22;;;;;;;2.63;1.30;;;8.50;99.90;;;;;;4424218;32;20196;-69
2022/04/08 02:58:49;;;;;;;3.07;1.10;;;8.50;99.90;;;;;;4412444;32;20170;-69
2022/04/08 03:01:16;;;;;;;3.87;1.40;;;8.50;99.90;;;;;;4426006;32;20189;-69
2022/04/08 03:03:44;;;;;;;2.37;1.30;;;8.50;99.90;;;;;;4423975;32;20205;-69
2022/04/08 03:06:10;;;;;;;3.67;1.23;;;8.50;99.90;;;;;;4424474;32;20227;-69
2022/04/08 03:08:37;;;;;;;3.37;1.33;;;8.50;99.90;;;;;;4425811;32;20232;-69
2022/04/08 03:11:05;;;;;;;3.73;1.30;;;8.50;99.90;;;;;;4423913;32;20452;-69
2022/04/08 03:13:33;;;;;;;4.57;1.37;;;8.40;99.90;;;;;;4423768;32;20174;-69
2022/04/08 03:16:01;;;;;;;4.97;1.50;;;8.40;99.90;;;;;;4425196;32;20236;-70
2022/04/08 03:18:27;;;;;;;4.33;1.40;;;8.40;99.90;;;;;;4424639;32;20466;-69
2022/04/08 03:20:55;;;;;;;4.77;1.70;;;8.40;99.90;;;;;;4424394;32;20553;-69
2022/04/08 03:23:22;;;;;;;3.53;1.30;;;8.40;99.90;;;;;;4424592;32;20423;-69
2022/04/08 03:25:49;;;;;;;4.67;1.63;;;8.40;99.90;;;;;;4425175;32;20186;-69
2022/04/08 03:28:16;;;;;;;2.07;1.10;;;8.40;99.90;;;;;;4423724;32;20537;-69
2022/04/08 03:30:42;;;;;;;3.90;1.37;;;8.40;99.90;;;;;;4425607;32;20235;-69
2022/04/08 03:33:09;;;;;;;3.43;1.20;;;8.30;99.90;;;;;;4425963;32;20162;-69
2022/04/08 03:35:36;;;;;;;4.00;1.23;;;8.30;99.90;;;;;;4424242;32;20197;-69
2022/04/08 03:38:04;;;;;;;4.50;1.20;;;8.30;99.90;;;;;;4423862;32;20582;-69
2022/04/08 03:40:33;;;;;;;3.10;1.30;;;8.30;99.90;;;;;;4425031;32;20456;-69
2022/04/08 03:43:00;;;;;;;2.43;1.10;;;8.30;99.90;;;;;;4424287;32;20236;-69
2022/04/08 03:45:27;;;;;;;3.53;1.13;;;8.20;99.90;;;;;;4423707;32;20175;-69
2022/04/08 03:47:54;;;;;;;3.40;1.20;;;8.20;99.90;;;;;;4424971;32;20171;-69
2022/04/08 03:50:21;;;;;;;5.07;1.70;;;8.20;99.90;;;;;;4423421;32;20222;-69
2022/04/08 03:52:47;;;;;;;3.10;1.30;;;8.10;99.90;;;;;;4423181;32;20178;-69
2022/04/08 03:55:14;;;;;;;4.13;1.50;;;8.10;99.90;;;;;;4423199;32;20521;-69
2022/04/08 03:57:41;;;;;;;4.33;1.23;;;8.10;99.90;;;;;;4424090;32;20407;-69
2022/04/08 04:00:09;;;;;;;5.30;1.50;;;8.10;99.90;;;;;;4423540;32;20180;-69
2022/04/08 04:02:36;;;;;;;2.03;1.00;;;8.10;99.90;;;;;;4423513;32;20239;-69
2022/04/08 04:05:03;;;;;;;4.13;1.40;;;8.10;99.90;;;;;;4424663;32;20206;-69
2022/04/08 04:07:33;;;;;;;3.00;1.13;;;8.10;99.90;;;;;;4424640;32;20390;-69
2022/04/08 04:10:00;;;;;;;4.43;1.40;;;8.10;99.90;;;;;;4423523;32;20189;-69
2022/04/08 04:12:27;;;;;;;2.73;1.13;;;8.10;99.90;;;;;;4425042;32;20168;-69
2022/04/08 04:14:55;;;;;;;4.10;1.20;;;8.10;99.90;;;;;;4424544;32;20274;-69
2022/04/08 04:17:23;;;;;;;3.73;1.40;;;8.10;99.90;;;;;;4424197;32;20150;-69
2022/04/08 04:19:50;;;;;;;4.63;1.50;;;8.10;99.90;;;;;;4422934;32;20206;-69
2022/04/08 04:22:17;;;;;;;2.33;1.20;;;8.00;99.90;;;;;;4422584;32;20196;-69
2022/04/08 04:24:44;;;;;;;4.20;1.40;;;8.00;99.90;;;;;;4423221;32;20492;-69
2022/04/08 04:27:11;;;;;;;4.93;1.60;;;8.00;99.90;;;;;;4423819;32;20193;-69
2022/04/08 04:29:39;;;;;;;4.57;1.30;;;8.00;99.90;;;;;;4423927;32;20173;-69
2022/04/08 04:32:06;;;;;;;3.07;1.40;;;8.00;99.90;;;;;;4423148;32;20174;-69
2022/04/08 04:34:36;;;;;;;5.60;1.63;;;8.00;99.90;;;;;;4422730;32;20264;-69
2022/04/08 04:37:04;;;;;;;2.50;1.47;;;8.00;99.90;;;;;;4423532;32;20225;-69
2022/04/08 04:39:31;;;;;;;3.50;1.10;;;8.00;99.90;;;;;;4424375;32;20186;-69
2022/04/08 04:41:59;;;;;;;7.67;1.50;;;8.00;99.90;;;;;;4422998;32;20193;-68
2022/04/08 04:44:27;;;;;;;3.80;1.60;;;8.00;99.90;;;;;;4425781;32;20150;-69
2022/04/08 04:46:55;;;;;;;4.37;1.40;;;8.00;99.90;;;;;;4423517;32;20174;-69
2022/04/08 04:49:22;;;;;;;4.67;1.30;;;8.00;99.90;;;;;;4423380;32;20242;-69
2022/04/08 04:51:50;;;;;;;5.30;1.37;;;8.10;99.90;;;;;;4422770;32;20178;-69
2022/04/08 04:54:18;;;;;;;3.20;1.47;;;8.10;99.90;;;;;;4422623;32;20193;-69
2022/04/08 04:56:44;;;;;;;3.70;1.40;;;8.10;99.90;;;;;;4423635;32;20205;-69
2022/04/08 04:59:11;;;;;;;3.80;1.37;;;8.10;99.90;;;;;;4423160;32;20166;-69
2022/04/08 05:01:38;;;;;;;3.00;1.47;;;8.10;99.90;;;;;;4423997;32;20178;-69
2022/04/08 05:04:05;;;;;;;4.63;1.40;;;8.10;99.90;;;;;;4424333;32;20196;-69
2022/04/08 05:06:34;;;;;;;3.77;1.50;;;8.10;99.90;;;;;;4423969;32;20172;-69
2022/04/08 05:09:05;;;;;;;4.47;1.60;;;8.20;99.90;;;;;;4423133;32;20224;-68
2022/04/08 05:11:32;;;;;;;6.73;1.30;;;8.20;99.90;;;;;;4422563;32;20401;-69
2022/04/08 05:14:00;;;;;;;5.93;1.47;;;8.20;99.90;;;;;;4422678;32;20281;-68
2022/04/08 05:16:28;;;;;;;4.83;1.57;;;8.20;99.90;;;;;;4422710;32;20193;-68
2022/04/08 05:18:56;;;;;;;4.33;1.50;;;8.00;99.90;;;;;;4424824;32;20212;-68
2022/04/08 05:21:23;;;;;;;2.93;1.20;;;7.80;99.90;;;;;;4421972;32;20264;-69
2022/04/08 05:23:50;;;;;;;3.93;1.60;;;7.70;99.90;;;;;;4422292;32;20175;-68
2022/04/08 05:26:18;;;;;;;2.70;1.60;;;7.70;99.90;;;;;;4422175;32;20540;-68
2022/04/08 05:28:46;;;;;;;3.60;1.40;;;7.60;99.90;;;;;;4425348;32;20145;-68
2022/04/08 05:31:13;;;;;;;2.57;1.40;;;7.50;99.90;;;;;;4422665;32;20298;-68
2022/04/08 05:33:40;;;;;;;5.17;2.00;;;7.50;99.90;;;;;;4422568;32;20198;-68
2022/04/08 05:36:07;;;;;;;4.20;1.50;;;7.50;99.90;;;;;;4422665;32;20190;-68
2022/04/08 05:38:34;;;;;;;3.10;1.43;;;7.60;99.90;;;;;;4425981;32;20174;-68
2022/04/08 05:41:01;;;;;;;7.30;1.60;;;7.60;99.90;;;;;;4426075;32;20171;-68
2022/04/08 05:43:29;;;;;;;6.73;1.63;;;7.70;99.90;;;;;;4425488;32;20169;-68
2022/04/08 05:45:56;;;;;;;3.50;1.57;;;7.70;99.90;;;;;;4425313;32;20544;-68
2022/04/08 05:48:23;;;;;;;3.10;1.30;;;7.80;99.90;;;;;;4425144;32;20212;-68
2022/04/08 05:50:50;;;;;;;4.33;1.37;;;7.80;99.90;;;;;;4425794;32;20241;-69
2022/04/08 05:53:17;;;;;;;6.20;1.63;;;7.90;99.90;;;;;;4426406;32;20186;-68
2022/04/08 05:56:02;;;;;;;2.27;1.30;;;7.90;99.90;;;;;;4425170;32;20528;-69
2022/04/08 05:58:31;;;;;;;3.57;1.30;;;8.10;99.90;;;;;;4426366;32;20211;-69
2022/04/08 06:00:58;;;;;;;4.03;1.30;;;8.20;99.90;;;;;;4425814;32;20223;-69
2022/04/08 06:03:25;;;;;;;2.07;1.40;;;8.30;99.90;;;;;;4425118;32;20205;-68
2022/04/08 06:05:53;;;;;;;2.87;1.47;;;8.30;99.90;;;;;;4425943;32;20197;-69
2022/04/08 06:08:20;;;;;;;3.80;1.27;;;8.40;99.90;;;;;;4426750;32;20181;-68
2022/04/08 06:10:47;;;;;;;6.37;1.50;;;8.40;99.90;;;;;;4425501;32;20536;-69
2022/04/08 06:13:14;;;;;;;4.27;1.30;;;8.50;99.90;;;;;;4424737;32;20222;-69
2022/04/08 06:15:41;;;;;;;3.30;1.10;;;8.50;99.90;;;;;;4426088;32;20178;-69
2022/04/08 06:18:09;;;;;;;3.27;1.30;;;8.60;99.90;;;;;;4426026;32;20221;-69
2022/04/08 06:20:36;;;;;;;3.43;1.27;;;8.80;99.90;;;;;;4424857;32;20201;-69
2022/04/08 06:23:03;;;;;;;3.83;1.17;;;8.90;99.90;;;;;;4425027;32;20228;-69
2022/04/08 06:25:30;;;;;;;4.83;1.30;;;9.00;99.90;;;;;;4424501;32;20193;-69
2022/04/08 06:28:04;;;;;;;2.20;1.27;;;9.00;99.90;;;;;;4425152;32;20178;-69
2022/04/08 06:30:39;;;;;;;5.17;1.10;;;9.00;99.90;;;;;;4426373;32;20406;-70
2022/04/08 06:33:08;;;;;;;4.77;1.30;;;8.90;99.90;;;;;;4424270;32;20567;-69
2022/04/08 06:35:35;;;;;;;4.47;1.20;;;8.90;99.90;;;;;;4424698;32;20599;-69
2022/04/08 06:38:08;;;;;;;4.23;1.50;;;8.90;99.90;;;;;;4424987;32;20175;-69
2022/04/08 06:40:38;;;;;;;3.87;1.30;;;8.80;99.90;;;;;;4424315;32;20246;-69
2022/04/08 06:43:09;;;;;;;3.23;1.20;;;8.60;99.90;;;;;;4425925;32;20139;-71
2022/04/08 06:45:36;;;;;;;1.77;1.27;;;8.20;99.90;;;;;;4424257;32;20586;-69
2022/04/08 06:48:03;;;;;;;2.27;1.60;;;7.90;99.90;;;;;;4423942;32;20428;-70
2022/04/08 06:50:31;;;;;;;5.07;1.30;;;7.60;99.90;;;;;;4424817;32;20254;-68
2022/04/08 06:53:00;;;;;;;3.80;1.50;;;7.40;99.90;;;;;;4426539;32;20183;-68
2022/04/08 06:55:29;;;;;;;3.60;1.57;;;7.20;99.90;;;;;;4425573;32;20174;-69
2022/04/08 06:57:58;;;;;;;2.33;1.43;;;7.10;99.90;;;;;;4426986;32;20142;-69
2022/04/08 07:00:26;;;;;;;3.13;1.63;;;7.00;99.90;;;;;;4426823;32;20156;-69
2022/04/08 07:02:53;;;;;;;2.70;1.60;;;7.20;99.90;;;;;;4425046;32;20204;-69
2022/04/08 07:05:21;;;;;;;3.30;1.53;;;7.30;99.90;;;;;;4424301;32;20192;-69
2022/04/08 07:07:47;;;;;;;3.90;1.50;;;7.50;99.90;;;;;;4425168;32;20177;-70
2022/04/08 07:10:14;;;;;;;2.73;1.60;;;7.60;99.90;;;;;;4425416;32;20227;-69
2022/04/08 07:12:41;;;;;;;5.03;1.63;;;7.80;99.90;;;;;;4423840;32;20182;-69
2022/04/08 07:15:09;;;;;;;6.30;1.60;;;8.00;99.90;;;;;;4425054;32;20186;-69
2022/04/08 07:17:36;;;;;;;3.30;1.70;;;8.10;99.90;;;;;;4424230;32;20205;-69
2022/04/08 07:20:14;;;;;;;5.33;1.70;;;8.30;99.90;;;;;;4424543;32;20202;-69
2022/04/08 07:22:43;;;;;;;3.07;1.40;;;8.40;99.90;;;;;;4425170;32;20241;-70
2022/04/08 07:25:11;;;;;;;3.17;1.40;;;8.40;99.90;;;;;;4425326;32;20194;-70
2022/04/08 07:27:50;;;;;;;4.47;1.50;;;8.50;99.90;;;;;;4424038;32;20194;-69
2022/04/08 07:30:19;;;;;;;2.93;1.30;;;8.40;99.90;;;;;;4424464;32;20174;-68
2022/04/08 07:32:48;;;;;;;2.73;1.30;;;8.50;99.90;;;;;;4425522;32;20146;-69
2022/04/08 07:35:15;;;;;;;3.20;1.43;;;8.60;99.90;;;;;;4426265;32;20180;-69
2022/04/08 07:37:42;;;;;;;2.03;1.20;;;8.70;99.90;;;;;;4423720;32;20166;-70
2022/04/08 07:40:12;;;;;;;3.13;1.07;;;8.70;99.90;;;;;;4424812;32;20174;-70
2022/04/08 07:42:40;;;;;;;2.57;1.20;;;8.70;99.90;;;;;;4424070;32;20174;-71
2022/04/08 07:45:08;;;;;;;2.03;1.10;;;8.80;99.90;;;;;;4424141;32;20186;-71
2022/04/08 07:47:35;;;;;;;1.77;0.93;;;8.70;99.90;;;;;;4425580;32;20173;-70
2022/04/08 07:50:09;;;;;;;1.93;1.20;;;8.80;99.90;;;;;;4423258;32;20204;-70
2022/04/08 07:52:37;;;;;;;5.93;1.17;;;8.80;99.90;;;;;;4424500;32;20183;-70
2022/04/08 07:55:05;;;;;;;2.30;1.10;;;8.90;99.90;;;;;;4423351;32;20196;-70
2022/04/08 07:57:32;;;;;;;3.20;1.30;;;8.80;99.90;;;;;;4423218;32;20173;-70
2022/04/08 07:59:59;;;;;;;2.83;1.20;;;8.90;99.90;;;;;;4422794;32;20189;-70
2022/04/08 08:02:29;;;;;;;3.23;1.20;;;9.00;99.90;;;;;;4424650;32;20135;-69
2022/04/08 08:04:56;;;;;;;1.87;1.20;;;9.00;99.90;;;;;;4424628;32;20193;-71
2022/04/08 08:07:23;;;;;;;1.70;1.10;;;9.00;99.90;;;;;;4422715;32;20174;-70
2022/04/08 08:09:50;;;;;;;2.77;1.20;;;9.10;99.90;;;;;;4423985;32;20526;-70
2022/04/08 08:12:22;;;;;;;1.77;0.83;;;9.30;99.90;;;;;;4423448;32;20535;-71
2022/04/08 08:14:49;;;;;;;2.60;1.10;;;9.40;99.90;;;;;;4423601;32;20178;-71
2022/04/08 08:17:16;;;;;;;3.40;1.10;;;9.50;99.90;;;;;;4423775;32;20432;-71
2022/04/08 08:19:43;;;;;;;1.30;0.90;;;9.50;99.90;;;;;;4424234;32;20524;-70
2022/04/08 08:22:10;;;;;;;1.97;0.90;;;9.60;99.90;;;;;;4422581;32;20221;-69
2022/04/08 08:24:36;;;;;;;1.30;1.03;;;9.80;99.90;;;;;;4423136;32;20213;-70
2022/04/08 08:27:04;;;;;;;1.13;0.83;;;9.80;99.90;;;;;;4423328;32;20170;-70
2022/04/08 08:29:31;;;;;;;1.90;1.03;;;9.80;99.90;;;;;;4432258;32;20178;-70
2022/04/08 08:31:57;;;;;;;1.87;1.17;;;9.80;99.90;;;;;;4439411;32;20169;-70
2022/04/08 08:34:25;;;;;;;1.30;1.03;;;9.70;99.90;;;;;;4439059;32;20237;-67
2022/04/08 08:36:57;;;;;;;1.97;0.93;;;9.80;99.90;;;;;;4438471;32;20190;-70
2022/04/08 08:39:24;;;;;;;2.40;0.93;;;9.60;99.90;;;;;;4438855;32;20170;-70
2022/04/08 08:41:51;;;;;;;2.17;1.00;;;9.70;99.90;;;;;;4438296;32;20431;-67
2022/04/08 08:44:19;;;;;;;0.90;0.80;;;9.80;99.90;;;;;;4437613;32;20258;-67
2022/04/08 08:46:47;;;;;;;1.03;0.87;;;9.90;99.90;;;;;;4439799;32;20204;-67
2022/04/08 08:49:19;;;;;;;1.87;1.10;;;9.90;99.90;;;;;;4439443;32;20169;-67
2022/04/08 08:51:55;;;;;;;2.63;1.20;;;9.90;99.90;;;;;;4439709;32;20158;-67
2022/04/08 08:54:22;;;;;;;4.23;1.03;;;10.00;99.90;;;;;;4438496;32;20488;-66
2022/04/08 08:56:49;;;;;;;1.23;0.97;;;10.00;99.90;;;;;;4437984;32;20212;-67
2022/04/08 08:59:17;;;;;;;1.50;1.00;;;10.20;99.90;;;;;;4438006;32;20170;-67
2022/04/08 09:01:48;;;;;;;2.50;1.00;;;10.10;99.90;;;;;;4438469;32;20192;-67
2022/04/08 09:04:16;;;;;;;1.63;0.90;;;10.00;99.90;;;;;;4438566;32;20246;-67
2022/04/08 09:06:43;;;;;;;1.87;0.90;;;10.00;99.90;;;;;;4437473;32;20182;-67
2022/04/08 09:09:11;;;;;;;2.60;1.00;;;9.90;99.90;;;;;;4437396;32;20169;-67
2022/04/08 09:11:38;;;;;;;1.20;0.97;;;9.80;99.90;;;;;;4438403;32;20190;-67
2022/04/08 09:14:05;;;;;;;2.50;0.87;;;9.80;99.90;;;;;;4439324;32;20432;-67
2022/04/08 09:16:39;;;;;;;3.17;1.00;;;9.80;99.90;;;;;;4437892;32;20181;-67
2022/04/08 09:19:13;;;;;;;1.17;0.90;;;9.80;99.90;;;;;;4438941;32;20157;-66
2022/04/08 09:21:51;;;;;;;1.27;0.90;;;9.70;99.90;;;;;;4437525;32;20228;-66
2022/04/08 09:24:22;;;;;;;1.70;1.20;;;9.60;99.90;;;;;;4437476;32;20240;-66
2022/04/08 09:26:53;;;;;;;2.37;1.03;;;9.60;99.90;;;;;;4438140;32;20174;-67
2022/04/08 09:29:23;;;;;;;1.60;1.00;;;9.70;99.90;;;;;;4437640;32;20193;-67
2022/04/08 09:31:51;;;;;;;1.40;1.00;;;9.60;99.90;;;;;;4437991;32;20179;-67
2022/04/08 09:34:20;;;;;;;2.17;1.00;;;9.70;99.90;;;;;;4437679;32;20205;-67
2022/04/08 09:36:47;;;;;;;1.73;1.20;;;9.70;99.90;;;;;;4439500;32;20503;-66
2022/04/08 09:39:14;;;;;;;1.60;1.00;;;9.60;99.90;;;;;;4437968;32;20525;-66
2022/04/08 09:41:43;;;;;;;1.63;1.20;;;9.50;99.90;;;;;;4440210;32;20134;-67
2022/04/08 09:44:12;;;;;;;1.97;1.10;;;9.50;99.90;;;;;;4437434;32;20196;-66
2022/04/08 09:46:40;;;;;;;1.53;1.10;;;9.50;99.90;;;;;;4438917;32;20147;-66
2022/04/08 09:49:08;;;;;;;1.77;1.10;;;9.50;99.90;;;;;;4437837;32;20166;-68
2022/04/08 09:51:39;;;;;;;2.80;1.10;;;9.50;99.90;;;;;;4437852;32;20186;-67
2022/04/08 09:54:12;;;;;;;1.67;1.10;;;9.50;99.90;;;;;;4437404;32;20537;-67
2022/04/08 09:56:43;;;;;;;2.60;1.00;;;9.50;99.90;;;;;;4436997;32;20214;-67
2022/04/08 09:59:21;;;;;;;1.40;1.10;;;9.60;99.90;;;;;;4439044;32;20183;-67
2022/04/08 10:02:09;;;;;;;3.37;1.00;;;9.80;99.90;;;;;;4436886;32;20289;-67
2022/04/08 10:04:37;;;;;;;3.33;1.20;;;10.10;99.90;;;;;;4437597;32;20194;-67
2022/04/08 10:07:05;;;;;;;5.13;1.27;;;10.20;99.90;;;;;;4438442;32;20258;-66
2022/04/08 10:09:40;;;;;;;1.30;1.10;;;10.40;99.90;;;;;;4436600;32;20166;-67
2022/04/08 10:12:33;;;;;;;1.70;1.10;;;10.40;99.90;;;;;;4437453;32;20173;-66
2022/04/08 10:15:14;;;;;;;1.33;1.10;;;10.40;99.90;;;;;;4437241;32;20233;-66
2022/04/08 10:17:41;;;;;;;3.70;1.20;;;10.30;99.90;;;;;;4434823;32;20613;-67
2022/04/08 10:20:22;;;;;;;2.10;1.03;;;10.70;99.90;;;;;;4438368;32;20166;-67
2022/04/08 10:22:48;;;;;;;1.00;0.90;;;11.00;99.90;;;;;;4438788;32;20193;-66
2022/04/08 10:25:17;;;;;;;2.13;1.10;;;11.30;99.90;;;;;;4441652;32;20200;-67
2022/04/08 10:27:45;;;;;;;1.73;0.93;;;11.30;99.90;;;;;;4440215;32;20216;-67
2022/04/08 10:30:14;;;;;;;2.43;1.20;;;11.10;99.90;;;;;;4440584;32;20167;-66
2022/04/08 10:32:43;;;;;;;1.80;1.10;;;10.60;99.90;;;;;;4439453;32;20179;-67
2022/04/08 10:35:20;;;;;;;2.70;1.60;;;10.40;99.90;;;;;;4440766;32;20185;-67
2022/04/08 10:38:07;;;;;;;4.53;1.60;;;10.20;99.90;;;;;;4441687;32;20165;-67
2022/04/08 10:40:36;;;;;;;2.37;1.60;;;10.00;99.90;;;;;;4440725;32;20185;-67
2022/04/08 10:43:10;;;;;;;2.70;1.50;;;10.00;99.90;;;;;;4440604;32;20170;-67
2022/04/08 10:45:37;;;;;;;2.60;1.13;;;10.00;99.90;;;;;;4440161;32;20389;-71
2022/04/08 10:48:08;;;;;;;1.70;1.30;;;10.10;99.90;;;;;;4435848;32;20241;-70
2022/04/08 10:50:35;;;;;;;1.87;1.40;;;10.20;99.90;;;;;;4426775;32;20541;-71
2022/04/08 10:53:04;;;;;;;2.10;1.27;;;10.50;99.90;;;;;;4440527;32;20158;-71
2022/04/08 10:55:31;;;;;;;1.37;1.20;;;10.60;99.90;;;;;;4428025;32;20174;-71
2022/04/08 10:57:59;;;;;;;2.03;1.30;;;10.80;99.90;;;;;;4427279;32;20178;-71
2022/04/08 11:00:26;;;;;;;1.60;1.50;;;10.60;99.90;;;;;;4426747;32;20205;-71
2022/04/08 11:02:55;;;;;;;1.77;1.53;;;10.50;99.90;;;;;;4426719;32;20205;-70
2022/04/08 11:05:22;;;;;;;4.00;1.63;;;10.30;99.90;;;;;;4426178;32;20170;-70
2022/04/08 11:07:53;;;;;;;2.77;1.57;;;10.40;99.90;;;;;;4440269;32;20207;-71
2022/04/08 11:10:21;;;;;;;1.97;1.60;;;10.60;99.90;;;;;;4427642;32;20171;-69
2022/04/08 11:12:53;;;;;;;2.83;1.83;;;10.50;99.90;;;;;;4427040;32;20174;-69
2022/04/08 11:15:27;;;;;;;2.90;1.93;;;10.20;99.90;;;;;;4428088;32;20170;-69
2022/04/08 11:17:54;;;;;;;2.20;1.70;;;9.00;99.90;;;;;;4426865;32;20205;-68
2022/04/08 11:20:22;;;;;;;2.30;1.40;;;7.70;99.90;;;;;;4426424;32;20209;-68
2022/04/08 11:22:52;;;;;;;1.97;1.53;;;6.90;99.90;;;;;;4432395;32;20446;-69
2022/04/08 11:25:25;;;;;;;2.27;1.80;;;6.50;99.90;;;;;;4442834;32;20170;-68
2022/04/08 11:28:02;;;;;;;3.07;1.80;;;6.50;99.90;;;;;;4442528;32;20184;-68
2022/04/08 11:30:30;;;;;;;3.20;1.93;;;6.70;99.90;;;;;;4455934;32;20222;-68
2022/04/08 11:32:58;;;;;;;3.97;1.90;;;6.80;99.90;;;;;;4442232;32;20527;-68
2022/04/08 11:35:31;;;;;;;1.80;1.70;;;7.00;99.90;;;;;;4442175;32;20177;-68
2022/04/08 11:37:58;;;;;;;1.93;1.47;;;7.30;99.90;;;;;;4442025;32;20174;-68
2022/04/08 11:40:25;;;;;;;2.03;1.37;;;7.30;99.90;;;;;;4456585;32;20138;-68
2022/04/08 11:42:57;;;;;;;3.83;1.20;;;7.20;99.90;;;;;;4442982;32;20230;-68
2022/04/08 11:45:24;;;;;;;1.57;1.20;;;7.10;99.90;;;;;;4441792;32;20194;-68
2022/04/08 11:47:51;;;;;;;0.90;0.90;;;6.90;99.90;;;;;;4441042;32;20190;-68
2022/04/08 11:50:26;;;;;;;1.33;0.90;;;6.90;99.90;;;;;;4442744;32;20432;-68
2022/04/08 11:52:58;;;;;;;1.60;1.10;;;7.10;99.90;;;;;;4455999;32;20145;-68
2022/04/08 11:55:30;;;;;;;1.30;1.10;;;7.20;99.90;;;;;;4441341;32;20253;-68
2022/04/08 11:57:58;;;;;;;1.97;1.20;;;7.30;99.90;;;;;;4440983;32;20275;-68
2022/04/08 12:00:27;;;;;;;1.30;1.10;;;8.20;99.90;;;;;;4440966;32;20608;-68
2022/04/08 12:02:58;;;;;;;2.43;1.10;;;9.60;99.90;;;;;;4441103;32;20200;-69
2022/04/08 12:05:27;;;;;;;1.50;1.00;;;10.70;99.90;;;;;;4454984;32;20150;-69
2022/04/08 12:08:16;;;;;;;3.60;1.20;;;10.20;99.90;;;;;;4441078;32;20196;-68
2022/04/08 12:10:42;;;;;;;1.80;1.03;;;9.50;99.90;;;;;;4440875;32;20190;-69
2022/04/08 12:13:18;;;;;;;1.60;1.30;;;9.20;99.90;;;;;;4440527;32;20186;-68
2022/04/08 12:15:48;;;;;;;1.70;1.30;;;9.10;99.90;;;;;;4455138;32;20143;-69
2022/04/08 12:18:24;;;;;;;1.93;1.20;;;10.50;99.90;;;;;;4441257;32;20161;-69
2022/04/08 12:21:00;;;;;;;1.33;1.20;;;11.20;99.90;;;;;;4455841;32;20161;-70
2022/04/08 12:23:28;;;;;;;1.30;1.20;;;11.20;99.90;;;;;;4455502;32;20177;-70
2022/04/08 12:25:57;;;;;;;2.73;1.20;;;10.50;99.90;;;;;;4455608;32;20138;-70
2022/04/08 12:28:28;;;;;;;2.13;1.60;;;10.40;99.90;;;;;;4441369;32;20435;-69
2022/04/08 12:30:55;;;;;;;2.77;1.53;;;10.50;99.90;;;;;;4441035;32;20204;-69
2022/04/08 12:33:23;;;;;;;2.93;1.50;;;10.10;99.90;;;;;;4455052;32;20139;-70
2022/04/08 12:35:50;;;;;;;1.80;1.40;;;10.00;99.90;;;;;;4440529;32;20170;-71
2022/04/08 12:38:19;;;;;;;1.60;1.30;;;9.70;99.90;;;;;;4442693;32;20181;-71
2022/04/08 12:40:47;;;;;;;1.80;1.50;;;9.60;99.90;;;;;;4456507;32;20182;-70
2022/04/08 12:43:14;;;;;;;1.60;1.50;;;9.20;99.90;;;;;;4456656;32;20170;-70
2022/04/08 12:45:42;;;;;;;1.57;1.43;;;9.10;99.90;;;;;;4456849;32;20180;-69
2022/04/08 12:48:09;;;;;;;1.77;1.33;;;8.90;99.90;;;;;;4455553;32;20206;-70
2022/04/08 12:50:36;;;;;;;1.57;1.40;;;8.70;99.90;;;;;;4470365;32;20194;-71
2022/04/08 12:53:03;;;;;;;1.97;1.40;;;8.70;99.90;;;;;;4457368;32;20173;-69
2022/04/08 12:55:30;;;;;;;1.43;1.20;;;8.70;99.90;;;;;;4455805;32;20180;-70
2022/04/08 12:57:57;;;;;;;1.67;1.40;;;8.60;99.90;;;;;;4457346;32;20222;-70
2022/04/08 13:00:27;;;;;;;1.60;1.40;;;8.60;99.90;;;;;;4470661;32;20380;-70
2022/04/08 13:02:54;;;;;;;2.53;1.27;;;8.80;99.90;;;;;;4470464;32;20142;-70